Time;durP1;ratioP1;P1;durP2;ratioP2;P2;SDS_P1;SDS_P2;PMS_P1;PMS_P2;Temp;Humidity;BMP_temperature;BMP_pressure;BME280_temperature;BME280_humidity;BME280_pressure;Samples;Min_cycle;Max_cycle;Signal;HPM_P1;HPM_P2
2022/08/16 00:01:28;;;;;;;16.27;13.67;;;;;;;21.02;100.00;99974.41;5063769;28;20485;-73
2022/08/16 00:03:53;;;;;;;21.20;15.77;;;;;;;21.02;100.00;99955.41;5048283;28;20545;-73
2022/08/16 00:06:20;;;;;;;20.17;14.53;;;;;;;21.10;100.00;99941.44;5063266;28;20112;-75
2022/08/16 00:08:46;;;;;;;18.58;14.82;;;;;;;21.10;100.00;99949.56;5064808;28;20038;-75
2022/08/16 00:11:12;;;;;;;17.77;14.03;;;;;;;21.04;100.00;99945.13;5055385;28;20133;-73
2022/08/16 00:13:37;;;;;;;18.10;14.05;;;;;;;21.07;100.00;99944.63;5052225;28;20021;-75
2022/08/16 00:16:03;;;;;;;16.55;13.68;;;;;;;21.06;100.00;99946.53;5060689;28;20059;-75
2022/08/16 00:18:29;;;;;;;19.45;14.82;;;;;;;20.99;100.00;99964.88;5063186;28;20879;-73
2022/08/16 00:20:54;;;;;;;18.43;13.40;;;;;;;21.00;100.00;99971.97;5062415;28;20119;-73
2022/08/16 00:23:20;;;;;;;16.43;14.13;;;;;;;20.99;100.00;99967.59;5061331;28;20852;-75
2022/08/16 00:25:45;;;;;;;16.23;14.20;;;;;;;20.96;100.00;99970.81;5053345;28;20271;-73
2022/08/16 00:28:11;;;;;;;19.97;15.67;;;;;;;20.91;100.00;99992.47;5045866;28;20036;-72
2022/08/16 00:30:37;;;;;;;17.37;13.83;;;;;;;20.82;100.00;99992.06;5044245;28;20314;-76
2022/08/16 00:33:04;;;;;;;22.80;16.05;;;;;;;20.70;100.00;99998.63;5046034;28;20033;-73
2022/08/16 00:35:32;;;;;;;;;;;;;;;20.49;100.00;100006.44;5078475;28;20021;-76
2022/08/16 00:37:57;;;;;;;19.33;16.08;;;;;;;20.40;100.00;100016.03;5064624;28;19916;-77
2022/08/16 00:40:28;;;;;;;24.80;17.50;;;;;;;20.34;100.00;100025.13;5046740;28;20083;-77
2022/08/16 00:42:53;;;;;;;22.98;18.13;;;;;;;20.26;100.00;100037.19;5058512;28;20033;-76
2022/08/16 00:45:48;;;;;;;28.77;18.92;;;;;;;20.11;100.00;100032.34;5061642;28;20036;-76
2022/08/16 00:48:14;;;;;;;20.02;17.80;;;;;;;19.99;100.00;100036.97;5053944;28;20040;-75
2022/08/16 00:50:42;;;;;;;25.20;18.92;;;;;;;19.93;100.00;100052.31;5027537;28;20021;-76
2022/08/16 00:53:12;;;;;;;26.77;19.77;;;;;;;19.80;100.00;100044.44;5058932;28;20382;-73
2022/08/16 00:55:40;;;;;;;25.15;19.38;;;;;;;19.80;100.00;100050.69;5048603;28;20186;-73
2022/08/16 00:58:08;;;;;;;25.35;19.42;;;;;;;19.77;100.00;100047.66;5062269;28;20170;-72
2022/08/16 01:00:34;;;;;;;24.95;21.50;;;;;;;19.73;100.00;100049.19;5058671;28;20044;-72
2022/08/16 01:03:07;;;;;;;26.42;20.02;;;;;;;19.71;100.00;100057.53;5052568;28;20071;-73
2022/08/16 01:05:33;;;;;;;27.33;21.63;;;;;;;19.65;100.00;100058.47;5037868;28;20032;-72
2022/08/16 01:08:01;;;;;;;27.65;21.38;;;;;;;19.57;100.00;100056.13;5052661;28;20111;-73
2022/08/16 01:10:29;;;;;;;32.05;22.02;;;;;;;19.57;100.00;100053.41;5053341;28;20036;-73
2022/08/16 01:12:55;;;;;;;26.23;20.95;;;;;;;19.53;100.00;100054.97;5062429;28;20029;-73
2022/08/16 01:15:22;;;;;;;25.83;20.47;;;;;;;19.62;100.00;100056.25;5052543;28;20048;-73
2022/08/16 01:17:48;;;;;;;22.65;19.60;;;;;;;19.59;100.00;100054.00;5044405;28;20119;-72
2022/08/16 01:20:17;;;;;;;25.77;20.45;;;;;;;19.56;100.00;100047.19;5043521;28;20067;-72
2022/08/16 01:22:53;;;;;;;26.73;20.60;;;;;;;19.54;100.00;100043.06;5061022;28;20482;-74
2022/08/16 01:25:24;;;;;;;27.35;20.13;;;;;;;19.52;100.00;100047.91;5059927;28;20052;-75
2022/08/16 01:27:53;;;;;;;24.98;19.95;;;;;;;19.55;100.00;100033.88;5056113;28;20028;-75
2022/08/16 01:30:31;;;;;;;27.73;19.52;;;;;;;19.56;100.00;100046.38;5043214;28;20029;-75
2022/08/16 01:33:00;;;;;;;24.13;20.13;;;;;;;19.51;100.00;100033.53;5046568;28;20032;-75
2022/08/16 01:35:31;;;;;;;23.80;19.42;;;;;;;19.50;100.00;100036.47;5060403;28;20029;-74
2022/08/16 01:38:12;;;;;;;21.98;18.40;;;;;;;19.51;100.00;100047.09;5062030;28;20032;-74
2022/08/16 01:40:38;;;;;;;26.75;19.05;;;;;;;19.49;100.00;100046.50;5043484;28;20109;-74
2022/08/16 01:43:03;;;;;;;23.13;18.17;;;;;;;19.49;100.00;100042.97;5035892;28;20100;-75
2022/08/16 01:45:29;;;;;;;19.77;17.20;;;;;;;19.54;100.00;100045.78;5027450;28;20677;-75
2022/08/16 01:47:54;;;;;;;25.97;18.77;;;;;;;19.54;100.00;100041.19;5043813;28;20025;-74
2022/08/16 01:50:21;;;;;;;24.80;19.23;;;;;;;19.61;100.00;100047.28;5044561;28;20028;-72
2022/08/16 01:52:48;;;;;;;20.88;16.88;;;;;;;19.61;100.00;100041.06;5063147;28;20074;-73
2022/08/16 01:55:23;;;;;;;20.35;17.02;;;;;;;19.64;100.00;100037.84;5060265;28;20056;-72
2022/08/16 01:57:51;;;;;;;22.75;18.40;;;;;;;19.64;100.00;100040.56;5047467;28;20044;-73
2022/08/16 02:00:17;;;;;;;22.27;18.23;;;;;;;19.66;100.00;100051.16;5048000;28;20032;-75
2022/08/16 02:02:44;;;;;;;22.77;17.65;;;;;;;19.69;100.00;100051.56;5047102;28;20402;-75
2022/08/16 02:05:12;;;;;;;27.02;20.60;;;;;;;19.68;100.00;100055.31;5061499;28;20024;-75
2022/08/16 02:07:38;;;;;;;22.65;17.33;;;;;;;19.74;100.00;100045.44;5050996;28;20145;-75
2022/08/16 02:10:06;;;;;;;27.77;18.85;;;;;;;19.81;100.00;100044.22;5057167;28;20025;-75
2022/08/16 02:12:40;;;;;;;22.08;17.98;;;;;;;19.76;100.00;100052.25;5043705;28;20039;-74
2022/08/16 02:15:07;;;;;;;22.80;18.17;;;;;;;19.79;100.00;100050.94;5064570;28;20024;-75
2022/08/16 02:17:33;;;;;;;21.77;17.75;;;;;;;19.82;100.00;100050.44;5064720;28;20070;-75
2022/08/16 02:19:59;;;;;;;20.25;16.40;;;;;;;19.81;100.00;100046.91;5057174;28;20032;-75
2022/08/16 02:22:24;;;;;;;21.93;18.00;;;;;;;19.83;100.00;100054.81;5057830;28;20025;-75
2022/08/16 02:24:50;;;;;;;21.13;15.93;;;;;;;19.82;100.00;100053.97;5064718;28;20661;-74
2022/08/16 02:27:16;;;;;;;23.20;17.17;;;;;;;19.80;100.00;100056.09;5063576;28;20519;-74
2022/08/16 02:29:42;;;;;;;18.90;16.70;;;;;;;19.85;100.00;100066.22;5063979;28;20596;-74
2022/08/16 02:32:11;;;;;;;21.40;16.20;;;;;;;19.89;100.00;100053.03;5063891;28;20024;-75
2022/08/16 02:34:36;;;;;;;22.35;17.35;;;;;;;19.90;100.00;100049.25;5047828;28;20099;-75
2022/08/16 02:37:02;;;;;;;27.23;18.13;;;;;;;19.85;100.00;100044.53;5046584;28;20025;-75
2022/08/16 02:39:28;;;;;;;22.13;16.05;;;;;;;19.84;100.00;100050.22;5048576;28;20040;-75
2022/08/16 02:41:54;;;;;;;25.33;15.40;;;;;;;19.85;100.00;100046.44;5066566;28;20099;-75
2022/08/16 02:44:22;;;;;;;20.02;16.85;;;;;;;19.85;100.00;100051.84;5063470;28;20035;-75
2022/08/16 02:46:49;;;;;;;18.42;16.27;;;;;;;19.82;100.00;100059.38;5064383;28;20031;-75
2022/08/16 02:49:14;;;;;;;17.47;15.13;;;;;;;19.80;100.00;100063.41;5062855;28;20466;-73
2022/08/16 02:51:41;;;;;;;19.83;16.75;;;;;;;19.79;100.00;100064.47;5046047;28;20025;-73
2022/08/16 02:54:07;;;;;;;24.42;17.02;;;;;;;19.79;100.00;100075.31;5046296;28;20041;-73
2022/08/16 02:56:34;;;;;;;25.70;18.52;;;;;;;19.80;100.00;100072.34;5033031;28;20020;-73
2022/08/16 02:59:00;;;;;;;18.13;15.85;;;;;;;19.80;100.00;100085.06;5057340;28;20648;-74
2022/08/16 03:01:30;;;;;;;27.88;17.38;;;;;;;19.73;100.00;100108.75;5055365;28;20063;-73
2022/08/16 03:03:58;;;;;;;28.33;18.33;;;;;;;19.52;100.00;100121.00;5065441;28;20041;-75
2022/08/16 03:06:25;;;;;;;39.35;21.23;;;;;;;19.12;100.00;100154.16;5067155;28;20025;-76
2022/08/16 03:08:52;;;;;;;39.88;23.88;;;;;;;18.88;100.00;100173.06;5048652;28;20028;-78
2022/08/16 03:11:19;;;;;;;33.10;23.15;;;;;;;18.72;100.00;100185.31;5057425;28;20028;-78
2022/08/16 03:13:53;;;;;;;36.58;24.38;;;;;;;18.52;100.00;100169.38;5049757;28;20089;-79
2022/08/16 03:16:20;;;;;;;47.25;24.92;;;;;;;18.47;100.00;100154.88;5063325;28;20465;-76
2022/08/16 03:18:46;;;;;;;54.55;31.13;;;;;;;18.54;100.00;100148.34;5050206;28;20089;-76
2022/08/16 03:21:12;;;;;;;49.33;28.80;;;;;;;18.51;100.00;100143.38;5049017;28;20439;-75
2022/08/16 03:23:39;;;;;;;;;;;;;;;18.51;100.00;100139.88;5051110;28;20020;-76
2022/08/16 03:26:07;;;;;;;54.30;32.55;;;;;;;18.53;100.00;100127.78;5073847;28;20336;-75
2022/08/16 03:28:33;;;;;;;104.45;46.53;;;;;;;18.52;100.00;100117.22;5046803;28;20078;-76
2022/08/16 03:30:59;;;;;;;163.73;54.85;;;;;;;18.46;100.00;100099.19;5052940;28;20047;-77
2022/08/16 03:33:25;;;;;;;112.50;43.20;;;;;;;18.43;100.00;100089.66;5050412;28;20078;-77
2022/08/16 03:35:58;;;;;;;138.43;51.97;;;;;;;18.43;100.00;100086.16;5059840;28;20123;-76
2022/08/16 03:38:34;;;;;;;100.93;46.10;;;;;;;18.45;100.00;100081.31;5064028;28;20547;-76
2022/08/16 03:41:04;;;;;;;89.55;43.67;;;;;;;18.47;100.00;100073.81;5057204;28;20028;-76
2022/08/16 03:43:32;;;;;;;78.43;41.45;;;;;;;18.48;100.00;100065.47;5059675;28;20029;-77
2022/08/16 03:45:58;;;;;;;75.22;41.33;;;;;;;18.42;100.00;100068.28;5064705;28;20021;-76
2022/08/16 03:48:32;;;;;;;104.10;48.47;;;;;;;18.49;100.00;100072.50;5050053;28;20036;-74
2022/08/16 03:51:01;;;;;;;77.65;43.28;;;;;;;18.47;100.00;100057.59;5057521;28;20033;-76
2022/08/16 03:53:30;;;;;;;84.93;46.00;;;;;;;18.44;100.00;100066.97;5064141;28;20147;-75
2022/08/16 03:55:56;;;;;;;75.05;44.72;;;;;;;18.47;100.00;100057.59;5065624;28;20516;-76
2022/08/16 03:58:22;;;;;;;69.80;43.25;;;;;;;18.47;100.00;100058.44;5049478;28;20012;-77
2022/08/16 04:00:48;;;;;;;103.37;49.60;;;;;;;18.55;100.00;100066.19;5049906;28;20082;-77
2022/08/16 04:03:16;;;;;;;118.60;54.28;;;;;;;18.58;100.00;100064.09;5063760;28;20012;-76
2022/08/16 04:05:45;;;;;;;117.63;55.53;;;;;;;18.61;100.00;100069.84;5046898;28;20093;-76
2022/08/16 04:08:12;;;;;;;101.72;50.58;;;;;;;18.62;100.00;100076.09;5030241;28;20029;-77
2022/08/16 04:10:39;;;;;;;100.63;49.72;;;;;;;18.61;100.00;100074.44;5058708;28;20032;-77
2022/08/16 04:13:05;;;;;;;120.15;54.40;;;;;;;18.56;100.00;100084.06;5065087;28;20020;-77
2022/08/16 04:15:32;;;;;;;189.38;63.80;;;;;;;18.55;100.00;100074.31;5061278;28;20037;-76
2022/08/16 04:18:18;;;;;;;110.47;52.70;;;;;;;18.59;100.00;100080.09;5047462;28;20110;-76
2022/08/16 04:20:43;;;;;;;102.13;50.05;;;;;;;18.60;100.00;100084.44;5049670;28;20085;-78
2022/08/16 04:23:09;;;;;;;137.40;55.03;;;;;;;18.63;100.00;100085.84;5046485;28;20390;-78
2022/08/16 04:25:38;;;;;;;119.03;54.17;;;;;;;18.59;100.00;100081.94;5051574;28;20036;-77
2022/08/16 04:28:07;;;;;;;107.28;50.45;;;;;;;18.59;100.00;100081.94;5051293;28;20024;-75
2022/08/16 04:30:32;;;;;;;;;;;;;;;18.53;100.00;100091.81;5046523;28;20611;-76
2022/08/16 04:32:59;;;;;;;;;;;;;;;18.57;100.00;100079.50;5047234;28;20003;-77
2022/08/16 04:35:25;;;;;;;98.38;47.75;;;;;;;18.55;100.00;100090.53;5065301;28;19913;-78
2022/08/16 04:37:51;;;;;;;107.72;51.58;;;;;;;18.63;100.00;100088.53;5050393;28;20496;-77
2022/08/16 04:40:29;;;;;;;85.68;46.47;;;;;;;18.60;100.00;100086.31;5063181;28;20592;-77
2022/08/16 04:42:55;;;;;;;;;;;;;;;18.55;100.00;100082.41;5051144;28;20568;-78
2022/08/16 04:45:24;;;;;;;110.72;51.50;;;;;;;18.59;100.00;100073.84;5047927;28;19925;-77
2022/08/16 04:47:50;;;;;;;;;;;;;;;18.65;100.00;100076.44;5048698;28;20853;-76
2022/08/16 04:50:21;;;;;;;84.38;43.15;;;;;;;18.66;100.00;100082.66;5063210;28;19912;-77
2022/08/16 04:53:09;;;;;;;92.93;49.25;;;;;;;18.60;100.00;100080.91;5064409;28;20055;-77
2022/08/16 04:55:37;;;;;;;122.00;56.67;;;;;;;18.57;100.00;100074.09;5039271;28;20028;-77
2022/08/16 04:58:04;;;;;;;108.57;53.15;;;;;;;18.52;100.00;100066.66;5046950;28;20035;-76
2022/08/16 05:00:33;;;;;;;126.25;57.85;;;;;;;18.52;100.00;100065.84;5054061;28;20426;-75
2022/08/16 05:03:10;;;;;;;107.28;54.15;;;;;;;18.55;100.00;100065.38;5046991;28;20032;-77
2022/08/16 05:05:53;;;;;;;108.28;53.63;;;;;;;18.60;100.00;100073.63;5042413;28;20506;-76
2022/08/16 05:08:22;;;;;;;100.97;52.50;;;;;;;18.47;100.00;100071.94;5047204;28;20078;-77
2022/08/16 05:10:57;;;;;;;112.63;54.92;;;;;;;18.50;100.00;100068.78;5047597;28;20036;-76
2022/08/16 05:13:23;;;;;;;115.22;58.90;;;;;;;18.52;100.00;100077.47;5055344;28;20086;-77
2022/08/16 05:15:48;;;;;;;106.53;54.13;;;;;;;18.45;100.00;100067.81;5064454;28;20028;-77
2022/08/16 05:18:16;;;;;;;103.13;51.30;;;;;;;18.42;100.00;100077.19;5048964;28;20033;-77
2022/08/16 05:20:48;;;;;;;108.38;55.22;;;;;;;18.39;100.00;100066.84;5048649;28;20028;-78
2022/08/16 05:23:16;;;;;;;103.90;51.92;;;;;;;18.38;100.00;100059.81;5047691;28;20037;-75
2022/08/16 05:25:42;;;;;;;119.32;55.85;;;;;;;18.50;100.00;100074.19;5051812;28;20110;-76
2022/08/16 05:28:11;;;;;;;109.95;55.30;;;;;;;18.46;100.00;100074.88;5049764;28;20397;-77
2022/08/16 05:30:39;;;;;;;100.82;54.80;;;;;;;18.41;100.00;100085.56;5041801;28;20036;-75
2022/08/16 05:33:13;;;;;;;97.70;52.13;;;;;;;18.42;100.00;100088.00;5052134;28;20041;-78
2022/08/16 05:35:39;;;;;;;95.57;49.83;;;;;;;18.51;100.00;100097.44;5049208;28;20461;-76
2022/08/16 05:38:09;;;;;;;101.53;53.67;;;;;;;18.44;100.00;100088.59;5056531;28;20038;-75
2022/08/16 05:40:35;;;;;;;143.77;63.70;;;;;;;18.54;100.00;100113.22;5045446;28;20029;-76
2022/08/16 05:43:01;;;;;;;97.55;52.92;;;;;;;18.50;100.00;100101.22;5062872;28;20025;-76
2022/08/16 05:45:27;;;;;;;105.43;53.47;;;;;;;18.42;100.00;100108.81;5047864;28;20033;-75
2022/08/16 05:47:56;;;;;;;112.25;55.88;;;;;;;18.36;100.00;100113.25;5049049;28;20021;-75
2022/08/16 05:50:22;;;;;;;95.22;50.42;;;;;;;18.39;100.00;100115.50;5063903;28;20031;-75
2022/08/16 05:52:48;;;;;;;;;;;;;;;18.40;100.00;100119.03;5049150;28;20464;-75
2022/08/16 05:55:16;;;;;;;99.95;51.03;;;;;;;18.38;100.00;100121.97;5064480;28;19923;-76
2022/08/16 05:57:42;;;;;;;91.93;51.92;;;;;;;18.44;100.00;100122.91;5066649;28;20162;-76
2022/08/16 06:00:11;;;;;;;93.90;51.30;;;;;;;18.49;100.00;100120.34;5048835;28;20405;-76
2022/08/16 06:02:40;;;;;;;101.18;51.15;;;;;;;18.58;100.00;100134.38;5058408;28;20097;-75
2022/08/16 06:05:21;;;;;;;90.05;48.65;;;;;;;18.58;100.00;100132.50;5065444;28;20434;-76
2022/08/16 06:07:46;;;;;;;92.13;46.80;;;;;;;18.63;100.00;100137.22;5065697;28;20071;-76
2022/08/16 06:10:21;;;;;;;97.65;51.95;;;;;;;18.75;100.00;100140.75;5063090;28;20123;-75
2022/08/16 06:12:47;;;;;;;87.07;45.80;;;;;;;18.82;100.00;100144.22;5065890;28;20107;-76
2022/08/16 06:15:16;;;;;;;81.60;43.30;;;;;;;18.83;100.00;100142.38;5063430;28;20745;-76
2022/08/16 06:17:42;;;;;;;87.70;47.67;;;;;;;18.84;100.00;100141.28;5064478;28;20020;-76
2022/08/16 06:20:09;;;;;;;;;;;;;;;18.66;100.00;100144.84;5063887;28;20025;-77
2022/08/16 06:22:37;;;;;;;80.85;45.33;;;;;;;18.67;100.00;100151.91;5046420;28;19920;-77
2022/08/16 06:25:03;;;;;;;90.72;46.83;;;;;;;18.75;100.00;100156.97;5054072;28;20496;-77
2022/08/16 06:27:29;;;;;;;87.65;50.38;;;;;;;18.80;100.00;100153.63;5038939;28;20024;-75
2022/08/16 06:29:55;;;;;;;88.13;46.38;;;;;;;18.71;100.00;100153.13;5037968;28;20035;-75
2022/08/16 06:32:21;;;;;;;85.18;49.35;;;;;;;18.64;100.00;100147.81;5046650;28;20150;-77
2022/08/16 06:34:46;;;;;;;88.93;47.40;;;;;;;18.62;100.00;100147.19;5051718;28;20473;-75
2022/08/16 06:37:12;;;;;;;;;;;;;;;18.59;100.00;100163.03;5044953;28;20288;-77
2022/08/16 06:39:40;;;;;;;95.28;50.33;;;;;;;18.69;100.00;100168.75;5063046;28;20292;-76
2022/08/16 06:42:13;;;;;;;90.15;50.65;;;;;;;18.79;100.00;100177.13;5053977;28;20118;-77
2022/08/16 06:44:45;;;;;;;92.60;50.60;;;;;;;18.81;100.00;100185.03;5048639;28;20057;-74
2022/08/16 06:47:27;;;;;;;93.00;48.35;;;;;;;18.84;100.00;100169.16;5047710;28;20028;-76
2022/08/16 06:49:52;;;;;;;92.77;52.70;;;;;;;18.92;100.00;100176.94;5047234;28;20418;-75
2022/08/16 06:52:18;;;;;;;92.50;50.43;;;;;;;18.92;100.00;100170.72;5047279;28;20064;-76
2022/08/16 06:54:44;;;;;;;90.73;50.07;;;;;;;18.99;100.00;100184.97;5051792;28;20432;-77
2022/08/16 06:57:10;;;;;;;86.53;52.42;;;;;;;19.05;100.00;100180.50;5046427;28;20032;-76
2022/08/16 06:59:36;;;;;;;100.88;52.90;;;;;;;19.18;100.00;100170.28;5046148;28;20036;-77
2022/08/16 07:02:02;;;;;;;;;;;;;;;19.24;100.00;100176.63;5046626;28;20476;-76
2022/08/16 07:04:28;;;;;;;88.57;49.85;;;;;;;19.23;100.00;100177.72;5046314;28;19951;-77
2022/08/16 07:06:53;;;;;;;90.97;50.03;;;;;;;19.33;100.00;100175.25;5052335;28;20112;-76
2022/08/16 07:09:20;;;;;;;89.93;49.42;;;;;;;19.36;100.00;100187.47;5048215;28;20048;-75
2022/08/16 07:11:46;;;;;;;81.72;48.75;;;;;;;19.18;100.00;100174.88;5049480;28;20047;-76
2022/08/16 07:14:12;;;;;;;87.55;48.97;;;;;;;19.29;100.00;100175.94;5064900;28;20107;-76
2022/08/16 07:16:46;;;;;;;85.53;49.72;;;;;;;19.30;100.00;100162.19;5060126;28;20037;-75
2022/08/16 07:19:15;;;;;;;72.30;44.58;;;;;;;19.50;100.00;100163.72;5045654;28;20035;-76
2022/08/16 07:21:41;;;;;;;80.90;45.65;;;;;;;19.53;100.00;100179.50;5045815;28;20494;-75
2022/08/16 07:24:09;;;;;;;84.35;47.05;;;;;;;19.38;100.00;100174.53;5045743;28;20033;-75
2022/08/16 07:26:37;;;;;;;68.75;42.97;;;;;;;19.50;100.00;100174.53;5038695;28;20016;-75
2022/08/16 07:29:03;;;;;;;71.97;44.92;;;;;;;19.60;100.00;100178.31;5044432;28;20040;-76
2022/08/16 07:31:29;;;;;;;72.15;41.75;;;;;;;19.51;100.00;100173.50;5061828;28;20036;-75
2022/08/16 07:33:54;;;;;;;65.38;42.55;;;;;;;19.63;100.00;100178.91;5052549;28;20029;-73
2022/08/16 07:36:26;;;;;;;59.60;38.67;;;;;;;19.64;100.00;100181.38;5059762;28;20021;-74
2022/08/16 07:38:52;;;;;;;61.45;40.97;;;;;;;19.74;100.00;100178.13;5061943;28;20044;-74
2022/08/16 07:41:18;;;;;;;65.65;39.88;;;;;;;19.88;100.00;100184.94;5045924;28;20078;-76
2022/08/16 07:43:49;;;;;;;66.97;40.38;;;;;;;19.93;100.00;100185.03;5050923;28;20537;-75
2022/08/16 07:46:16;;;;;;;60.63;36.00;;;;;;;20.15;100.00;100187.94;5044967;28;20029;-75
2022/08/16 07:48:43;;;;;;;55.10;36.53;;;;;;;20.44;100.00;100188.81;5045595;28;20017;-75
2022/08/16 07:51:08;;;;;;;52.85;35.85;;;;;;;20.43;100.00;100183.63;5044475;28;20969;-75
2022/08/16 07:53:34;;;;;;;54.17;36.43;;;;;;;20.29;100.00;100185.78;5061535;28;20035;-75
2022/08/16 07:56:01;;;;;;;57.55;37.20;;;;;;;20.36;100.00;100191.06;5048664;28;20033;-75
2022/08/16 07:58:32;;;;;;;52.42;35.47;;;;;;;20.38;100.00;100188.94;5038165;28;20031;-75
2022/08/16 08:01:00;;;;;;;54.33;36.13;;;;;;;20.40;100.00;100186.81;5051247;28;20032;-75
2022/08/16 08:03:26;;;;;;;49.38;34.92;;;;;;;20.47;100.00;100190.22;5028846;28;20017;-75
2022/08/16 08:05:52;;;;;;;48.90;33.42;;;;;;;20.76;100.00;100201.91;5044791;28;20128;-75
2022/08/16 08:08:18;;;;;;;53.92;36.20;;;;;;;20.79;100.00;100206.00;5061455;28;20364;-75
2022/08/16 08:10:44;;;;;;;50.80;32.97;;;;;;;21.05;100.00;100207.31;5044352;28;20052;-75
2022/08/16 08:13:09;;;;;;;54.33;34.63;;;;;;;20.87;100.00;100205.63;5051804;28;20187;-75
2022/08/16 08:15:35;;;;;;;54.53;35.25;;;;;;;21.16;100.00;100202.88;5044646;28;20029;-75
2022/08/16 08:18:01;;;;;;;49.60;34.33;;;;;;;21.43;100.00;100214.75;5036363;28;20114;-75
2022/08/16 08:20:30;;;;;;;43.92;30.48;;;;;;;21.46;100.00;100205.28;5044620;28;20028;-75
2022/08/16 08:22:59;;;;;;;41.38;31.13;;;;;;;21.72;100.00;100214.66;5044679;28;20028;-75
2022/08/16 08:25:26;;;;;;;42.40;30.52;;;;;;;22.01;100.00;100209.06;5051947;28;20029;-76
2022/08/16 08:27:52;;;;;;;42.28;26.90;;;;;;;22.18;100.00;100204.41;5039544;28;20532;-75
2022/08/16 08:30:18;;;;;;;42.40;28.17;;;;;;;22.58;100.00;100214.16;5044730;28;20037;-74
2022/08/16 08:32:44;;;;;;;36.17;26.38;;;;;;;23.37;100.00;100204.63;5040958;28;20122;-73
2022/08/16 08:35:10;;;;;;;39.27;25.73;;;;;;;23.88;100.00;100209.59;5048797;28;20493;-75
2022/08/16 08:37:38;;;;;;;29.77;22.40;;;;;;;24.30;100.00;100187.72;5041021;28;20023;-74
2022/08/16 08:40:08;;;;;;;29.48;22.50;;;;;;;24.18;100.00;100121.66;5054126;28;20037;-75
2022/08/16 08:42:33;;;;;;;20.77;15.75;;;;;;;24.40;100.00;100152.31;5061922;28;20422;-75
2022/08/16 08:44:59;;;;;;;26.63;19.00;;;;;;;25.34;100.00;100184.94;5041099;28;20021;-76
2022/08/16 08:47:24;;;;;;;28.52;20.73;;;;;;;24.66;100.00;100072.44;5043435;28;20036;-74
2022/08/16 08:49:49;;;;;;;33.47;20.05;;;;;;;23.92;100.00;100139.84;5056317;28;20025;-74
2022/08/16 08:52:16;;;;;;;28.92;20.48;;;;;;;23.78;100.00;100153.13;5044736;28;20040;-74
2022/08/16 08:54:42;;;;;;;30.77;21.50;;;;;;;23.33;100.00;100177.06;5057449;28;20031;-75
2022/08/16 08:57:08;;;;;;;27.70;19.80;;;;;;;23.24;100.00;100221.38;5052357;28;20028;-75
2022/08/16 08:59:37;;;;;;;24.33;20.38;;;;;;;23.48;100.00;100252.63;5045122;28;20298;-75
2022/08/16 09:02:07;;;;;;;25.83;20.65;;;;;;;23.82;100.00;100216.13;5044034;28;20578;-75
2022/08/16 09:04:39;;;;;;;17.20;14.27;;;;;;;24.21;100.00;100224.78;5043241;28;20028;-75
2022/08/16 09:07:05;;;;;;;23.77;19.00;;;;;;;24.04;100.00;100200.41;5058338;28;20064;-75
2022/08/16 09:09:32;;;;;;;21.23;17.15;;;;;;;24.34;100.00;100180.63;5057851;28;20384;-75
2022/08/16 09:11:58;;;;;;;22.88;16.73;;;;;;;24.48;100.00;100152.88;5064136;28;20029;-75
2022/08/16 09:14:24;;;;;;;22.95;16.17;;;;;;;24.34;100.00;100123.34;5063082;28;20037;-75
2022/08/16 09:16:50;;;;;;;15.63;12.10;;;;;;;25.09;100.00;100155.69;5066034;28;20040;-74
2022/08/16 09:19:16;;;;;;;;;;;;;;;26.12;100.00;100046.91;5047233;28;20521;-75
2022/08/16 09:21:42;;;;;;;16.77;12.15;;;;;;;26.82;100.00;99969.22;5081573;28;19944;-75
2022/08/16 09:24:07;;;;;;;16.02;13.35;;;;;;;26.93;100.00;99933.22;5065627;28;20025;-75
2022/08/16 09:26:33;;;;;;;13.40;10.63;;;;;;;26.99;100.00;99900.28;5064321;28;20033;-75
2022/08/16 09:28:59;;;;;;;12.18;10.32;;;;;;;27.60;100.00;99939.81;5050120;28;20070;-74
2022/08/16 09:31:24;;;;;;;16.08;11.40;;;;;;;27.07;100.00;99759.97;5063154;28;20037;-74
2022/08/16 09:33:50;;;;;;;14.98;10.20;;;;;;;27.58;100.00;99816.72;5066553;28;20045;-75
2022/08/16 09:36:15;;;;;;;21.02;12.02;;;;;;;28.34;100.00;99792.66;5065078;28;20036;-75
2022/08/16 09:38:41;;;;;;;;;;;;;;;28.16;100.00;99805.34;5066671;28;20032;-76
2022/08/16 09:41:09;;;;;;;8.82;7.15;;;;;;;28.73;100.00;99884.75;5080766;28;19923;-76
2022/08/16 09:43:37;;;;;;;8.55;7.45;;;;;;;29.50;94.15;99835.59;5064497;28;20033;-74
2022/08/16 09:46:06;;;;;;;11.20;9.32;;;;;;;28.62;89.54;99702.91;5064760;28;20170;-76
2022/08/16 09:48:32;;;;;;;11.25;8.32;;;;;;;28.12;93.40;99735.75;5046104;28;20055;-75
2022/08/16 09:50:57;;;;;;;11.13;7.22;;;;;;;27.82;100.00;99898.09;5062991;28;20056;-75
2022/08/16 09:53:23;;;;;;;;;;;;;;;27.68;100.00;100063.34;5048608;28;20379;-76
2022/08/16 09:55:51;;;;;;;13.10;10.57;;;;;;;27.63;100.00;100013.22;5065731;28;19919;-75
2022/08/16 09:58:23;;;;;;;12.07;8.30;;;;;;;28.12;100.00;100066.91;5065177;28;20038;-75
2022/08/16 10:00:50;;;;;;;12.32;11.13;;;;;;;28.24;100.00;100011.56;5081035;28;20391;-74
2022/08/16 10:03:17;;;;;;;12.43;10.38;;;;;;;28.17;100.00;100034.75;5049049;28;20382;-75
2022/08/16 10:05:42;;;;;;;15.43;11.88;;;;;;;28.30;100.00;99904.16;5065639;28;20055;-75
2022/08/16 10:08:08;;;;;;;13.57;11.15;;;;;;;28.25;100.00;99991.28;5049076;28;20074;-75
2022/08/16 10:10:35;;;;;;;;;;;;;;;29.11;88.77;99828.78;5065406;28;20407;-75
2022/08/16 10:13:11;;;;;;;18.02;11.80;;;;;;;29.67;85.69;99855.84;5065262;28;19917;-75
2022/08/16 10:15:38;;;;;;;15.30;11.35;;;;;;;28.62;86.94;99784.47;5064725;28;20474;-75
2022/08/16 10:18:06;;;;;;;14.02;10.07;;;;;;;29.61;84.68;99911.22;5065757;28;20040;-74
2022/08/16 10:20:44;;;;;;;15.00;10.75;;;;;;;29.64;84.83;99930.69;5063031;28;20081;-75
2022/08/16 10:23:13;;;;;;;15.75;10.23;;;;;;;29.34;79.69;99778.25;5064238;28;20063;-74
2022/08/16 10:25:41;;;;;;;15.77;11.50;;;;;;;28.56;83.59;99827.69;5050289;28;20436;-75
2022/08/16 10:28:07;;;;;;;14.05;10.02;;;;;;;28.60;87.68;99891.03;5063500;28;20028;-75
2022/08/16 10:30:33;;;;;;;18.98;12.00;;;;;;;28.36;88.06;99874.72;5064174;28;20430;-75
2022/08/16 10:32:58;;;;;;;;;;;;;;;28.31;92.05;99963.44;5066318;28;20080;-75
2022/08/16 10:35:24;;;;;;;15.55;10.85;;;;;;;28.07;93.35;99944.34;5079746;28;19920;-75
2022/08/16 10:37:51;;;;;;;13.23;9.35;;;;;;;28.97;87.46;99996.38;5059960;28;20051;-75
2022/08/16 10:40:17;;;;;;;17.80;12.07;;;;;;;28.65;78.33;99756.38;5052873;28;20520;-75
2022/08/16 10:42:42;;;;;;;15.10;9.82;;;;;;;29.60;79.93;99959.94;5057542;28;20031;-75
2022/08/16 10:45:08;;;;;;;14.82;8.88;;;;;;;29.54;76.32;99886.09;5049008;28;20405;-75
2022/08/16 10:47:34;;;;;;;11.98;9.60;;;;;;;30.02;74.38;99911.13;5064772;28;20040;-74
2022/08/16 10:50:01;;;;;;;12.23;10.93;;;;;;;29.78;69.43;99737.28;5064452;28;20158;-75
2022/08/16 10:52:26;;;;;;;13.85;9.98;;;;;;;29.70;72.64;99837.88;5063434;28;20029;-76
2022/08/16 10:54:51;;;;;;;;;;;;;;;30.62;70.02;99915.38;5064846;28;20409;-75
2022/08/16 10:57:17;;;;;;;13.17;9.37;;;;;;;30.68;65.84;99775.56;5063625;28;19912;-75
2022/08/16 10:59:42;;;;;;;;;;;;;;;29.08;68.76;99661.78;5065475;28;20298;-75
2022/08/16 11:02:09;;;;;;;15.43;9.00;;;;;;;28.69;74.75;99830.75;5079710;28;19912;-75
2022/08/16 11:04:35;;;;;;;15.23;10.65;;;;;;;28.70;78.83;99925.72;5064325;28;20460;-75
2022/08/16 11:07:00;;;;;;;13.85;8.43;;;;;;;29.53;76.48;100013.72;5065205;28;20119;-75
2022/08/16 11:09:26;;;;;;;10.85;8.10;;;;;;;30.71;68.82;99946.53;5055471;28;20032;-75
2022/08/16 11:11:51;;;;;;;;;;;;;;;30.88;61.38;99697.00;5052793;28;20387;-75